Time;durP1;ratioP1;P1;durP2;ratioP2;P2;SDS_P1;SDS_P2;PMS_P1;PMS_P2;Temp;Humidity;BMP_temperature;BMP_pressure;BME280_temperature;BME280_humidity;BME280_pressure;Samples;Min_cycle;Max_cycle;Signal;HPM_P1;HPM_P2
2023/07/25 00:01:21;;;;;;;15.43;11.82;;;;;;;15.40;83.21;98707.06;5075353;28;20528;-55
2023/07/25 00:03:50;;;;;;;18.13;11.30;;;;;;;15.42;83.33;98709.56;5075280;28;20456;-57
2023/07/25 00:06:16;;;;;;;17.25;11.05;;;;;;;15.43;83.05;98711.22;5075129;28;20028;-56
2023/07/25 00:08:42;;;;;;;23.17;12.48;;;;;;;15.45;83.43;98709.22;5075349;28;20067;-55
2023/07/25 00:11:12;;;;;;;14.13;10.40;;;;;;;15.52;83.67;98710.16;5074701;28;20072;-53
2023/07/25 00:13:38;;;;;;;14.27;10.85;;;;;;;15.54;83.91;98713.50;5074300;28;20027;-53
2023/07/25 00:16:03;;;;;;;12.63;10.45;;;;;;;15.58;83.62;98725.59;5073982;28;20024;-55
2023/07/25 00:18:29;;;;;;;15.38;10.23;;;;;;;15.56;82.91;98726.81;5074031;28;20037;-57
2023/07/25 00:20:55;;;;;;;17.20;10.63;;;;;;;15.57;82.83;98723.09;5074537;28;20033;-56
2023/07/25 00:23:20;;;;;;;14.75;10.23;;;;;;;15.58;82.65;98714.81;5074949;28;20124;-54
2023/07/25 00:25:46;;;;;;;18.58;10.45;;;;;;;15.55;82.97;98682.81;5074744;28;20028;-54
2023/07/25 00:28:11;;;;;;;15.27;10.35;;;;;;;15.70;82.78;98699.00;5075051;28;20084;-56
2023/07/25 00:30:39;;;;;;;14.15;10.43;;;;;;;15.75;82.86;98698.47;5074805;28;20028;-53
2023/07/25 00:33:05;;;;;;;14.27;11.32;;;;;;;15.85;82.98;98700.88;5074419;28;20025;-55
2023/07/25 00:35:30;;;;;;;13.70;10.55;;;;;;;15.90;82.62;98682.28;5073461;28;20082;-50
2023/07/25 00:37:56;;;;;;;15.15;10.45;;;;;;;16.01;82.39;98678.28;5074167;28;20112;-51
2023/07/25 00:40:21;;;;;;;12.25;10.20;;;;;;;16.03;82.02;98668.13;5073790;28;20035;-52
2023/07/25 00:42:53;;;;;;;11.57;9.75;;;;;;;16.18;81.99;98677.06;5074306;28;20024;-59
2023/07/25 00:45:18;;;;;;;14.30;10.02;;;;;;;16.12;81.36;98650.78;5074385;28;20024;-54
2023/07/25 00:47:44;;;;;;;17.40;9.90;;;;;;;16.20;81.29;98658.81;5074665;28;20090;-55
2023/07/25 00:50:09;;;;;;;11.52;10.20;;;;;;;16.28;81.14;98663.28;5074201;28;20028;-53
2023/07/25 00:52:35;;;;;;;12.85;10.15;;;;;;;16.34;80.70;98667.06;5073912;28;20033;-51
2023/07/25 00:55:02;;;;;;;12.18;9.20;;;;;;;16.38;80.68;98665.63;5073289;28;20410;-57
2023/07/25 00:57:30;;;;;;;12.70;9.48;;;;;;;16.40;80.13;98660.91;5072726;28;20465;-53
2023/07/25 00:59:56;;;;;;;13.68;9.43;;;;;;;16.34;80.18;98630.09;5073780;28;20040;-51
2023/07/25 01:02:22;;;;;;;12.98;9.20;;;;;;;16.48;79.86;98652.69;5074057;28;20028;-54
2023/07/25 01:04:48;;;;;;;11.85;9.80;;;;;;;16.32;79.72;98628.59;5073778;28;20059;-58
2023/07/25 01:07:14;;;;;;;13.50;9.32;;;;;;;16.43;79.81;98638.91;5074298;28;20097;-55
2023/07/25 01:09:44;;;;;;;13.80;9.57;;;;;;;16.50;79.71;98647.91;5073867;28;20098;-58
2023/07/25 01:12:11;;;;;;;12.27;9.43;;;;;;;16.41;79.73;98632.88;5073317;28;20039;-54
2023/07/25 01:14:38;;;;;;;15.35;9.40;;;;;;;16.49;79.62;98640.84;5073705;28;20136;-53
2023/07/25 01:17:13;;;;;;;14.25;9.55;;;;;;;16.60;79.23;98647.59;5073402;28;20089;-58
2023/07/25 01:19:41;;;;;;;13.13;9.63;;;;;;;16.60;79.15;98646.75;5073595;28;20116;-56
2023/07/25 01:22:08;;;;;;;11.52;9.30;;;;;;;16.59;79.19;98655.91;5073351;28;20029;-52
2023/07/25 01:24:37;;;;;;;9.85;8.63;;;;;;;16.59;78.98;98664.84;5073454;28;20059;-53
2023/07/25 01:27:02;;;;;;;11.57;9.00;;;;;;;16.63;78.93;98665.28;5073544;28;20059;-54
2023/07/25 01:29:28;;;;;;;10.50;8.23;;;;;;;16.64;78.64;98650.78;5073492;28;20072;-53
2023/07/25 01:31:54;;;;;;;10.52;8.65;;;;;;;16.55;78.23;98617.63;5072846;28;20036;-54
2023/07/25 01:34:20;;;;;;;12.93;8.80;;;;;;;16.81;77.91;98648.66;5073331;28;20087;-57
2023/07/25 01:36:45;;;;;;;11.18;8.52;;;;;;;16.80;77.65;98646.97;5072169;28;20365;-55
2023/07/25 01:39:10;;;;;;;13.00;8.35;;;;;;;16.89;77.63;98663.91;5072878;28;20052;-54
2023/07/25 01:41:37;;;;;;;15.27;8.55;;;;;;;16.67;77.20;98620.66;5073297;28;20056;-53
2023/07/25 01:44:03;;;;;;;13.23;8.48;;;;;;;16.98;76.69;98648.34;5073401;28;20112;-54
2023/07/25 01:46:29;;;;;;;13.25;8.13;;;;;;;17.01;76.68;98658.84;5072034;28;20418;-51
2023/07/25 01:48:54;;;;;;;13.15;8.25;;;;;;;17.03;76.49;98660.31;5073362;28;20028;-55
2023/07/25 01:51:19;;;;;;;12.52;8.50;;;;;;;17.03;76.35;98657.59;5073294;28;20360;-60
2023/07/25 01:53:45;;;;;;;13.43;8.32;;;;;;;17.11;76.22;98663.88;5073236;28;20087;-55
2023/07/25 01:56:10;;;;;;;12.48;8.40;;;;;;;17.18;76.11;98670.22;5073077;28;20036;-54
2023/07/25 01:58:36;;;;;;;13.88;8.13;;;;;;;17.22;75.78;98658.78;5072986;28;20099;-55
2023/07/25 02:01:01;;;;;;;10.95;7.85;;;;;;;17.26;75.39;98655.72;5071888;28;20066;-54
2023/07/25 02:03:27;;;;;;;12.18;8.25;;;;;;;17.32;75.11;98644.91;5072713;28;20044;-56
2023/07/25 02:05:52;;;;;;;13.73;8.07;;;;;;;17.33;75.02;98654.72;5071728;28;20050;-52
2023/07/25 02:08:18;;;;;;;13.23;7.78;;;;;;;17.34;74.94;98718.59;5072651;28;20045;-53
2023/07/25 02:10:44;;;;;;;12.48;8.02;;;;;;;17.32;75.11;98685.50;5072849;28;20133;-55
2023/07/25 02:13:09;;;;;;;19.90;8.63;;;;;;;17.40;76.23;98702.66;5071849;28;20341;-51
2023/07/25 02:15:38;;;;;;;16.13;9.10;;;;;;;17.41;76.79;98725.97;5072657;28;20124;-53
2023/07/25 02:18:04;;;;;;;14.70;8.57;;;;;;;17.34;77.29;98717.78;5072412;28;20024;-54
2023/07/25 02:20:31;;;;;;;16.30;8.38;;;;;;;17.18;77.79;98711.59;5072624;28;20342;-54
2023/07/25 02:22:57;;;;;;;9.07;5.93;;;;;;;17.15;77.38;98722.81;5072474;28;20039;-54
2023/07/25 02:25:25;;;;;;;7.15;5.35;;;;;;;17.06;77.52;98727.50;5072945;28;20020;-54
2023/07/25 02:27:50;;;;;;;8.68;5.57;;;;;;;16.97;77.78;98716.97;5073011;28;20380;-53
2023/07/25 02:30:15;;;;;;;10.70;6.15;;;;;;;16.91;78.22;98703.22;5072680;28;20028;-49
2023/07/25 02:32:41;;;;;;;8.90;5.78;;;;;;;16.85;78.53;98708.53;5072518;28;20587;-52
2023/07/25 02:35:06;;;;;;;6.53;4.70;;;;;;;16.71;77.85;98713.81;5072083;28;20024;-54
2023/07/25 02:37:32;;;;;;;5.10;3.22;;;;;;;16.58;78.19;98719.91;5072507;28;20047;-55
2023/07/25 02:39:57;;;;;;;6.72;3.45;;;;;;;16.53;78.31;98705.31;5072141;28;20054;-54
2023/07/25 02:42:23;;;;;;;7.28;3.70;;;;;;;16.39;78.55;98701.59;5072217;28;20028;-56
2023/07/25 02:44:48;;;;;;;6.28;3.15;;;;;;;16.24;78.77;98705.16;5072615;28;20029;-55
2023/07/25 02:47:14;;;;;;;5.55;3.08;;;;;;;16.15;79.43;98698.19;5072634;28;20357;-54
2023/07/25 02:49:39;;;;;;;7.45;3.38;;;;;;;16.10;79.92;98703.31;5072353;28;20060;-55
2023/07/25 02:52:05;;;;;;;13.68;4.50;;;;;;;16.07;80.30;98701.81;5072228;28;20055;-52
2023/07/25 02:54:31;;;;;;;12.13;4.25;;;;;;;16.06;80.45;98697.47;5072309;28;20115;-52
2023/07/25 02:56:56;;;;;;;9.25;4.28;;;;;;;16.09;80.87;98688.97;5072267;28;20028;-50
2023/07/25 02:59:22;;;;;;;7.95;4.03;;;;;;;16.13;81.14;98690.28;5072646;28;20146;-52
2023/07/25 03:01:48;;;;;;;7.88;4.40;;;;;;;16.18;81.21;98681.63;5072244;28;20035;-55
2023/07/25 03:04:13;;;;;;;11.02;4.93;;;;;;;16.27;80.85;98682.34;5072364;28;20024;-56
2023/07/25 03:06:39;;;;;;;12.55;5.10;;;;;;;16.32;81.04;98677.22;5072052;28;20036;-54
2023/07/25 03:09:04;;;;;;;11.40;5.15;;;;;;;16.42;81.13;98675.06;5072173;28;20031;-52
2023/07/25 03:11:30;;;;;;;8.75;4.40;;;;;;;16.50;80.22;98685.75;5071906;28;20108;-52
2023/07/25 03:13:56;;;;;;;6.22;4.40;;;;;;;16.50;80.28;98674.94;5072167;28;20097;-54
2023/07/25 03:16:21;;;;;;;6.05;4.43;;;;;;;16.52;80.24;98671.19;5072003;28;20120;-55
2023/07/25 03:18:47;;;;;;;8.70;4.65;;;;;;;16.66;80.63;98683.84;5074199;28;20452;-55
2023/07/25 03:21:12;;;;;;;9.63;5.25;;;;;;;16.74;80.54;98681.00;5075753;28;20382;-52
2023/07/25 03:23:37;;;;;;;8.05;5.25;;;;;;;16.78;79.84;98676.88;5075819;28;20040;-52
2023/07/25 03:26:03;;;;;;;15.73;6.78;;;;;;;16.81;79.92;98670.28;5075821;28;20035;-55
2023/07/25 03:28:29;;;;;;;11.32;5.68;;;;;;;16.61;79.95;98634.91;5075582;28;20059;-55
2023/07/25 03:30:54;;;;;;;9.75;6.07;;;;;;;16.86;80.33;98664.25;5075757;28;20028;-54
2023/07/25 03:33:20;;;;;;;8.27;5.72;;;;;;;16.91;80.06;98664.53;5075588;28;20166;-50
2023/07/25 03:35:45;;;;;;;9.32;5.45;;;;;;;16.97;80.29;98652.94;5075235;28;20033;-51
2023/07/25 03:38:11;;;;;;;11.02;5.50;;;;;;;17.07;80.24;98658.06;5075607;28;20343;-52
2023/07/25 03:40:36;;;;;;;11.48;6.00;;;;;;;17.15;80.01;98666.03;5075648;28;20032;-52
2023/07/25 03:43:02;;;;;;;10.93;6.75;;;;;;;17.21;79.75;98667.13;5075481;28;20043;-53
2023/07/25 03:45:27;;;;;;;8.88;6.20;;;;;;;17.27;79.53;98660.91;5075637;28;20510;-55
2023/07/25 03:47:53;;;;;;;7.03;6.15;;;;;;;17.36;78.62;98667.88;5075668;28;20034;-55
2023/07/25 03:50:18;;;;;;;8.90;6.75;;;;;;;17.40;78.26;98657.47;5075059;28;20383;-56
2023/07/25 03:52:44;;;;;;;8.15;6.93;;;;;;;17.45;77.85;98659.59;5075391;28;20037;-54
2023/07/25 03:55:09;;;;;;;9.23;7.03;;;;;;;17.47;78.03;98652.09;5073972;28;20506;-53
2023/07/25 03:57:35;;;;;;;9.75;7.07;;;;;;;17.45;78.05;98654.19;5074013;28;20028;-50
2023/07/25 04:00:00;;;;;;;7.95;6.80;;;;;;;17.50;77.55;98660.69;5075272;28;20147;-54
2023/07/25 04:02:26;;;;;;;9.60;7.53;;;;;;;17.55;77.60;98660.06;5075496;28;20024;-54
2023/07/25 04:04:51;;;;;;;9.45;7.20;;;;;;;17.64;77.93;98663.47;5075111;28;20036;-55
2023/07/25 04:07:17;;;;;;;8.45;7.55;;;;;;;17.72;77.80;98662.47;5075141;28;20032;-55
2023/07/25 04:09:42;;;;;;;9.00;7.85;;;;;;;17.76;77.92;98671.84;5074515;28;20449;-57
2023/07/25 04:12:08;;;;;;;11.85;8.40;;;;;;;17.92;77.90;98676.09;5074811;28;20042;-53
2023/07/25 04:14:34;;;;;;;12.55;7.68;;;;;;;18.22;77.81;98676.69;5074704;28;20036;-55
2023/07/25 04:16:59;;;;;;;9.57;8.68;;;;;;;18.69;76.77;98670.59;5061260;28;20033;-53
2023/07/25 04:19:24;;;;;;;11.27;8.68;;;;;;;19.50;73.60;98667.94;5054978;28;20044;-54
2023/07/25 04:21:50;;;;;;;8.57;7.75;;;;;;;20.37;70.63;98670.44;5054915;28;20040;-49
2023/07/25 04:24:15;;;;;;;9.02;7.97;;;;;;;20.84;67.81;98665.81;5054582;28;20437;-52
2023/07/25 04:26:41;;;;;;;9.88;8.48;;;;;;;20.96;66.55;98669.50;5053980;28;20060;-57
2023/07/25 04:29:06;;;;;;;10.90;8.40;;;;;;;20.74;66.76;98630.91;5073857;28;20480;-52
2023/07/25 04:31:32;;;;;;;10.60;7.78;;;;;;;21.06;65.75;98672.56;5073798;28;20441;-52
2023/07/25 04:33:57;;;;;;;10.32;8.00;;;;;;;21.23;65.40;98666.59;5074611;28;20119;-52
2023/07/25 04:36:26;;;;;;;9.45;7.82;;;;;;;21.78;64.25;98667.78;5074412;28;20399;-52
2023/07/25 04:38:51;;;;;;;8.73;7.63;;;;;;;22.61;62.13;98670.13;5074377;28;20372;-55
2023/07/25 04:41:17;;;;;;;9.20;7.90;;;;;;;22.97;60.05;98671.09;5074485;28;20058;-53
2023/07/25 04:43:42;;;;;;;9.07;7.70;;;;;;;23.07;59.24;98662.34;5073713;28;20491;-55
2023/07/25 04:46:07;;;;;;;11.05;7.80;;;;;;;23.47;59.00;98666.31;5074211;28;20041;-54
2023/07/25 04:48:33;;;;;;;8.07;7.25;;;;;;;24.69;55.47;98660.13;5073963;28;20043;-55
2023/07/25 04:50:58;;;;;;;9.75;7.32;;;;;;;25.41;53.55;98654.25;5074200;28;20063;-54
2023/07/25 04:53:25;;;;;;;10.35;7.38;;;;;;;25.64;52.12;98665.03;5073643;28;20038;-55
2023/07/25 04:55:50;;;;;;;11.07;7.82;;;;;;;26.11;50.63;98664.81;5073071;28;20063;-55
2023/07/25 04:58:16;;;;;;;8.13;7.13;;;;;;;27.77;46.62;98645.28;5073947;28;20060;-56
2023/07/25 05:00:41;;;;;;;9.90;6.82;;;;;;;29.74;42.07;98653.91;5073940;28;20391;-51
2023/07/25 05:03:07;;;;;;;8.52;6.60;;;;;;;31.26;38.01;98645.41;5073820;28;20029;-55
2023/07/25 05:05:32;;;;;;;7.57;6.53;;;;;;;31.30;37.69;98643.69;5073741;28;20131;-52
2023/07/25 05:07:58;;;;;;;7.85;6.68;;;;;;;31.77;37.10;98652.41;5073999;28;20111;-53
2023/07/25 05:10:23;;;;;;;6.72;6.05;;;;;;;31.55;36.97;98661.16;5072234;28;20059;-53
2023/07/25 05:12:49;;;;;;;6.90;6.20;;;;;;;30.87;37.84;98654.53;5073150;28;20127;-54
2023/07/25 05:15:14;;;;;;;7.57;6.20;;;;;;;29.93;39.41;98666.00;5073588;28;20064;-52
2023/07/25 05:17:40;;;;;;;6.88;6.15;;;;;;;28.88;40.92;98662.75;5072827;28;20066;-55
2023/07/25 05:20:06;;;;;;;7.60;6.80;;;;;;;27.80;42.99;98675.81;5073086;28;20025;-54
2023/07/25 05:22:32;;;;;;;7.88;7.05;;;;;;;26.89;45.40;98672.06;5073696;28;20020;-58
2023/07/25 05:24:57;;;;;;;7.45;6.60;;;;;;;26.37;46.58;98674.22;5073746;28;20488;-56
2023/07/25 05:27:23;;;;;;;7.75;6.88;;;;;;;25.93;47.66;98678.59;5072554;28;20041;-57
2023/07/25 05:29:49;;;;;;;9.70;7.38;;;;;;;25.46;48.65;98668.00;5073566;28;20407;-58
2023/07/25 05:32:14;;;;;;;7.88;6.78;;;;;;;25.44;49.39;98684.72;5072884;28;20086;-59
2023/07/25 05:34:39;;;;;;;7.97;7.18;;;;;;;25.59;48.78;98675.94;5073270;28;20502;-57
2023/07/25 05:37:06;;;;;;;7.55;6.85;;;;;;;26.00;48.62;98685.78;5072898;28;20036;-55
2023/07/25 05:39:31;;;;;;;8.30;7.50;;;;;;;25.93;48.41;98675.84;5089296;28;20063;-59
2023/07/25 05:41:57;;;;;;;8.32;7.53;;;;;;;25.79;48.17;98674.53;5072945;28;20413;-59
2023/07/25 05:44:22;;;;;;;9.05;7.53;;;;;;;25.23;48.28;98639.72;5072958;28;20037;-57
2023/07/25 05:46:48;;;;;;;8.02;7.20;;;;;;;24.75;50.56;98680.25;5072966;28;20440;-55
2023/07/25 05:49:13;;;;;;;9.32;7.53;;;;;;;24.02;52.25;98658.81;5073185;28;20064;-59
2023/07/25 05:51:39;;;;;;;8.50;7.70;;;;;;;23.67;53.27;98687.00;5072907;28;20028;-56
2023/07/25 05:54:04;;;;;;;9.93;7.70;;;;;;;23.33;54.42;98691.13;5073123;28;20415;-59
2023/07/25 05:56:30;;;;;;;10.10;8.00;;;;;;;23.09;55.18;98687.50;5073339;28;20064;-60
2023/07/25 05:58:55;;;;;;;10.95;7.70;;;;;;;23.08;55.42;98688.56;5072654;28;20032;-58
2023/07/25 06:01:21;;;;;;;8.82;7.35;;;;;;;23.00;55.16;98669.78;5072222;28;20470;-57
2023/07/25 06:03:46;;;;;;;9.23;7.45;;;;;;;23.37;55.14;98692.31;5072426;28;20028;-57
2023/07/25 06:06:12;;;;;;;8.52;7.43;;;;;;;23.57;53.44;98644.69;5072649;28;20476;-58
2023/07/25 06:08:37;;;;;;;9.48;6.72;;;;;;;24.27;52.67;98671.34;5072182;28;20395;-56
2023/07/25 06:11:03;;;;;;;10.35;6.85;;;;;;;25.41;49.25;98687.13;5072011;28;20087;-57
2023/07/25 06:13:28;;;;;;;8.63;7.05;;;;;;;26.61;46.59;98682.19;5072019;28;20036;-59
2023/07/25 06:15:54;;;;;;;7.63;6.50;;;;;;;27.80;43.27;98684.06;5072649;28;20037;-56
2023/07/25 06:18:19;;;;;;;7.88;6.43;;;;;;;28.31;41.76;98687.38;5072678;28;20035;-59
2023/07/25 06:20:46;;;;;;;7.57;6.32;;;;;;;29.70;39.31;98691.44;5072778;28;20457;-60
2023/07/25 06:23:12;;;;;;;8.77;6.00;;;;;;;30.44;36.92;98694.53;5072333;28;20096;-56
2023/07/25 06:25:38;;;;;;;7.38;6.65;;;;;;;30.31;37.04;98689.63;5072353;28;20111;-57
2023/07/25 06:28:05;;;;;;;11.55;6.70;;;;;;;29.94;38.87;98692.47;5073136;28;20107;-54
2023/07/25 06:30:32;;;;;;;8.27;6.43;;;;;;;29.55;39.68;98700.56;5072710;28;20096;-52
2023/07/25 06:32:57;;;;;;;8.63;6.40;;;;;;;30.26;38.24;98693.22;5072090;28;20028;-59
2023/07/25 06:35:23;;;;;;;7.90;6.32;;;;;;;31.75;34.92;98685.03;5072466;28;20032;-57
2023/07/25 06:37:49;;;;;;;8.63;5.60;;;;;;;33.49;31.71;98687.72;5070795;28;20029;-53
2023/07/25 06:40:14;;;;;;;6.72;5.43;;;;;;;34.31;31.25;98690.06;5071753;28;20349;-54
2023/07/25 06:42:40;;;;;;;6.75;5.32;;;;;;;35.88;28.25;98691.63;5072130;28;20396;-56
2023/07/25 06:45:07;;;;;;;6.63;5.40;;;;;;;38.30;24.62;98697.34;5071799;28;20055;-55
2023/07/25 06:47:33;;;;;;;5.40;4.50;;;;;;;40.62;21.60;98683.16;5071817;28;20369;-58
2023/07/25 06:49:59;;;;;;;6.68;4.82;;;;;;;41.66;20.46;98680.91;5071630;28;20024;-59
2023/07/25 06:52:25;;;;;;;6.47;5.03;;;;;;;41.76;20.26;98680.38;5071626;28;20048;-58
2023/07/25 06:54:50;;;;;;;5.38;4.80;;;;;;;41.87;19.23;98675.03;5076008;28;20040;-55
2023/07/25 06:57:16;;;;;;;5.22;4.72;;;;;;;42.26;19.08;98666.75;5076299;28;20100;-56
2023/07/25 06:59:41;;;;;;;4.85;4.32;;;;;;;43.83;17.41;98680.00;5076301;28;20392;-58
2023/07/25 07:02:07;;;;;;;9.23;4.40;;;;;;;45.69;15.86;98675.56;5075866;28;20021;-59
2023/07/25 07:04:32;;;;;;;5.18;4.72;;;;;;;46.11;15.81;98679.22;5076592;28;20388;-59
2023/07/25 07:06:58;;;;;;;8.35;4.13;;;;;;;46.41;15.13;98666.03;5075849;28;20504;-58
2023/07/25 07:09:23;;;;;;;4.40;4.00;;;;;;;47.46;14.15;98674.97;5076099;28;20052;-58
2023/07/25 07:11:50;;;;;;;5.28;4.35;;;;;;;48.45;13.30;98687.13;5075394;28;20102;-58
2023/07/25 07:14:15;;;;;;;5.20;4.72;;;;;;;48.74;13.00;98693.53;5075812;28;20142;-62
2023/07/25 07:16:40;;;;;;;4.50;4.13;;;;;;;47.66;14.39;98681.13;5063876;28;20546;-64
2023/07/25 07:19:06;;;;;;;6.03;4.72;;;;;;;45.61;15.72;98690.88;5068651;28;20037;-63
2023/07/25 07:21:31;;;;;;;6.22;4.55;;;;;;;43.33;17.36;98695.97;5075184;28;20096;-63
2023/07/25 07:23:57;;;;;;;4.43;4.05;;;;;;;42.84;17.50;98689.72;5073983;28;20184;-64
2023/07/25 07:26:23;;;;;;;4.53;4.13;;;;;;;44.64;16.02;98688.53;5074905;28;20445;-64
2023/07/25 07:28:48;;;;;;;4.10;3.80;;;;;;;47.00;14.02;98694.28;5075131;28;20041;-63
2023/07/25 07:31:15;;;;;;;3.80;3.47;;;;;;;47.11;13.72;98693.50;5074167;28;20036;-65
2023/07/25 07:33:41;;;;;;;4.50;3.63;;;;;;;45.56;14.21;98672.25;5075371;28;20032;-63
2023/07/25 07:36:07;;;;;;;3.80;3.50;;;;;;;45.36;14.67;98677.31;5075860;28;20326;-63
2023/07/25 07:38:32;;;;;;;3.67;3.47;;;;;;;45.87;13.96;98675.78;5074397;28;20029;-64
2023/07/25 07:40:58;;;;;;;4.53;4.13;;;;;;;47.23;12.97;98678.97;5075109;28;20229;-63
2023/07/25 07:43:23;;;;;;;3.78;3.47;;;;;;;49.08;12.06;98690.19;5075479;28;20033;-64
2023/07/25 07:45:49;;;;;;;6.35;3.58;;;;;;;50.43;10.70;98692.03;5074698;28;20081;-62
2023/07/25 07:48:15;;;;;;;3.65;3.35;;;;;;;49.66;11.52;98700.38;5074947;28;20341;-63
2023/07/25 07:50:43;;;;;;;6.22;3.97;;;;;;;48.69;12.02;98708.97;5075000;28;20029;-63
2023/07/25 07:53:09;;;;;;;5.53;3.97;;;;;;;49.30;11.50;98672.19;5074590;28;20028;-62
2023/07/25 07:55:35;;;;;;;4.72;3.60;;;;;;;50.75;10.43;98699.41;5057382;28;20148;-60
2023/07/25 07:58:00;;;;;;;5.30;4.00;;;;;;;51.66;9.90;98693.28;5052874;28;20385;-61
2023/07/25 08:00:26;;;;;;;4.55;3.80;;;;;;;52.13;9.46;98668.88;5054459;28;20102;-63
2023/07/25 08:02:52;;;;;;;4.82;4.43;;;;;;;52.63;8.95;98693.59;5062518;28;20043;-62
2023/07/25 08:05:18;;;;;;;4.63;4.20;;;;;;;52.35;9.08;98698.66;5074789;28;20028;-62
2023/07/25 08:07:43;;;;;;;4.65;4.25;;;;;;;52.10;9.37;98677.06;5074592;28;20055;-59
2023/07/25 08:10:09;;;;;;;5.03;4.47;;;;;;;51.96;9.48;98695.19;5075043;28;20127;-63
2023/07/25 08:12:35;;;;;;;5.72;4.50;;;;;;;51.22;9.90;98699.59;5075054;28;20119;-62
2023/07/25 08:15:01;;;;;;;6.50;4.30;;;;;;;50.76;10.08;98698.16;5074547;28;20112;-60
2023/07/25 08:17:27;;;;;;;3.80;3.50;;;;;;;50.25;10.58;98693.81;5073517;28;20395;-60
2023/07/25 08:19:53;;;;;;;4.20;3.80;;;;;;;49.50;10.82;98696.06;5068615;28;20112;-61
2023/07/25 08:22:18;;;;;;;4.47;3.63;;;;;;;48.17;11.63;98695.31;5059650;28;20047;-62
2023/07/25 08:24:44;;;;;;;3.30;2.90;;;;;;;46.42;12.91;98684.63;5073192;28;20021;-63
2023/07/25 08:27:10;;;;;;;3.42;2.90;;;;;;;43.76;15.06;98696.78;5072130;28;20414;-62
2023/07/25 08:29:40;;;;;;;4.20;2.70;;;;;;;41.18;17.35;98704.06;5073810;28;20032;-63
2023/07/25 08:32:07;;;;;;;4.93;3.50;;;;;;;38.50;19.90;98681.81;5073555;28;20035;-63
2023/07/25 08:34:33;;;;;;;3.72;3.42;;;;;;;36.35;22.01;98681.97;5073476;28;20043;-63
2023/07/25 08:36:58;;;;;;;6.50;3.53;;;;;;;34.73;24.58;98692.81;5072289;28;20111;-63
2023/07/25 08:39:24;;;;;;;3.13;2.92;;;;;;;33.70;26.00;98686.50;5072881;28;20021;-64
2023/07/25 08:41:53;;;;;;;4.18;3.47;;;;;;;32.56;28.24;98696.59;5073198;28;20040;-63
2023/07/25 08:44:23;;;;;;;6.75;3.83;;;;;;;31.54;28.95;98684.41;5073871;28;20036;-61
2023/07/25 08:46:52;;;;;;;4.13;3.40;;;;;;;30.70;31.16;98696.34;5072634;28;20108;-62
2023/07/25 08:49:23;;;;;;;4.30;3.47;;;;;;;29.91;31.93;98693.03;5073891;28;20044;-61
2023/07/25 08:51:52;;;;;;;5.68;3.58;;;;;;;29.52;33.23;98699.19;5073730;28;20513;-63
2023/07/25 08:54:39;;;;;;;4.07;3.65;;;;;;;29.54;33.53;98696.97;5072898;28;20441;-61
2023/07/25 08:57:05;;;;;;;6.47;3.80;;;;;;;29.13;33.97;98694.19;5073721;28;20055;-61
2023/07/25 08:59:31;;;;;;;6.03;4.22;;;;;;;29.17;34.31;98687.84;5072767;28;20094;-62
2023/07/25 09:01:57;;;;;;;5.43;3.78;;;;;;;29.36;34.00;98710.16;5072931;28;20379;-63
2023/07/25 09:04:25;;;;;;;5.40;4.50;;;;;;;29.41;33.54;98700.28;5073427;28;20032;-63
2023/07/25 09:06:52;;;;;;;5.95;3.83;;;;;;;29.54;33.39;98696.97;5072596;28;20028;-62
2023/07/25 09:09:18;;;;;;;7.03;3.85;;;;;;;29.65;32.99;98695.03;5071043;28;20036;-61
2023/07/25 09:11:44;;;;;;;5.05;4.20;;;;;;;29.79;32.95;98692.50;5061612;28;20106;-59
2023/07/25 09:14:11;;;;;;;4.85;3.25;;;;;;;29.63;33.38;98698.03;5072430;28;20479;-58
2023/07/25 09:16:37;;;;;;;5.72;3.60;;;;;;;29.54;33.89;98693.38;5071520;28;20028;-60
2023/07/25 09:19:02;;;;;;;5.22;4.20;;;;;;;29.46;33.76;98686.50;5072027;28;20033;-58
2023/07/25 09:21:28;;;;;;;4.45;3.80;;;;;;;29.42;34.01;98675.19;5072382;28;20032;-63
2023/07/25 09:24:00;;;;;;;6.53;4.07;;;;;;;29.38;34.69;98696.13;5069642;28;20029;-62
2023/07/25 09:26:28;;;;;;;4.90;4.20;;;;;;;28.72;35.31;98679.22;5054083;28;20103;-61
2023/07/25 09:28:56;;;;;;;4.53;4.10;;;;;;;28.39;35.53;98670.31;5072630;28;20451;-62
2023/07/25 09:31:23;;;;;;;4.75;4.35;;;;;;;28.46;35.92;98692.09;5073213;28;20417;-62
2023/07/25 09:33:51;;;;;;;4.55;4.15;;;;;;;28.39;36.67;98688.78;5053014;28;20105;-62
2023/07/25 09:36:20;;;;;;;6.97;4.15;;;;;;;28.51;36.35;98681.94;5057967;28;20465;-60
2023/07/25 09:38:50;;;;;;;5.47;3.80;;;;;;;28.68;35.81;98682.78;5052521;28;20033;-60
2023/07/25 09:41:16;;;;;;;4.40;3.95;;;;;;;28.62;35.13;98680.03;5052979;28;20116;-60
2023/07/25 09:43:42;;;;;;;7.63;4.35;;;;;;;28.65;35.49;98678.66;5072780;28;20328;-61
2023/07/25 09:46:08;;;;;;;4.95;4.15;;;;;;;28.45;35.98;98677.47;5072481;28;20058;-59
2023/07/25 09:48:33;;;;;;;5.03;4.32;;;;;;;28.39;35.69;98678.56;5071715;28;20032;-63
2023/07/25 09:51:01;;;;;;;4.88;4.45;;;;;;;28.47;35.81;98678.06;5058140;28;20033;-63
2023/07/25 09:53:27;;;;;;;5.72;4.45;;;;;;;28.51;35.65;98673.69;5061119;28;20020;-63
2023/07/25 09:55:53;;;;;;;5.05;4.60;;;;;;;28.32;35.43;98637.53;5072011;28;20040;-61
2023/07/25 09:58:19;;;;;;;7.18;4.25;;;;;;;28.61;35.34;98647.25;5072042;28;20063;-62
2023/07/25 10:00:46;;;;;;;5.03;4.30;;;;;;;28.51;35.48;98648.91;5072187;28;20166;-62
2023/07/25 10:03:12;;;;;;;15.05;4.85;;;;;;;28.37;36.08;98656.00;5072302;28;20468;-60
2023/07/25 10:05:43;;;;;;;10.00;4.43;;;;;;;28.39;35.61;98658.50;5071336;28;20401;-62
2023/07/25 10:08:11;;;;;;;7.35;4.63;;;;;;;28.25;36.10;98647.16;5072624;28;20035;-60
2023/07/25 10:10:36;;;;;;;17.98;5.30;;;;;;;28.24;36.61;98656.53;5071500;28;20067;-62
2023/07/25 10:13:02;;;;;;;9.32;4.72;;;;;;;28.04;36.40;98631.34;5071749;28;20498;-63
2023/07/25 10:15:29;;;;;;;6.22;4.68;;;;;;;28.17;35.78;98632.81;5072574;28;20066;-59
2023/07/25 10:18:20;;;;;;;5.40;4.88;;;;;;;28.68;35.50;98669.03;5071868;28;20074;-58
2023/07/25 10:20:47;;;;;;;16.30;5.10;;;;;;;28.53;36.28;98658.81;5072389;28;20071;-59
2023/07/25 10:23:14;;;;;;;26.52;6.15;;;;;;;28.46;36.44;98654.41;5071184;28;20033;-56
2023/07/25 10:25:40;;;;;;;9.23;4.82;;;;;;;28.63;35.77;98669.84;5072482;28;20456;-58
2023/07/25 10:28:06;;;;;;;16.90;5.65;;;;;;;28.83;35.87;98662.75;5070158;28;20071;-56
2023/07/25 10:30:43;;;;;;;11.52;4.70;;;;;;;29.08;35.08;98668.28;5071711;28;20028;-59
2023/07/25 10:33:12;;;;;;;7.57;4.72;;;;;;;29.10;34.27;98672.69;5071651;28;20040;-57
2023/07/25 10:35:54;;;;;;;6.05;5.00;;;;;;;29.34;33.95;98657.25;5070759;28;20107;-61
2023/07/25 10:38:29;;;;;;;5.97;5.15;;;;;;;29.38;33.85;98663.03;5070957;28;20047;-63
2023/07/25 10:40:59;;;;;;;4.95;4.45;;;;;;;29.36;34.33;98666.06;5071031;28;20079;-61
2023/07/25 10:43:51;;;;;;;5.88;4.60;;;;;;;29.12;34.26;98657.53;5070899;28;20504;-63
2023/07/25 10:46:19;;;;;;;6.18;4.55;;;;;;;29.10;33.72;98661.66;5070774;28;20036;-63
2023/07/25 10:48:47;;;;;;;6.03;4.82;;;;;;;28.93;34.69;98658.06;5067855;28;20032;-61
2023/07/25 10:51:15;;;;;;;9.00;4.63;;;;;;;29.08;35.06;98654.50;5071453;28;20024;-62
2023/07/25 10:54:01;;;;;;;6.88;4.47;;;;;;;29.20;35.05;98651.47;5072276;28;20453;-62
2023/07/25 10:56:27;;;;;;;7.18;5.05;;;;;;;29.16;34.83;98636.59;5051782;28;20045;-62
2023/07/25 10:59:11;;;;;;;5.60;4.30;;;;;;;29.33;34.35;98654.78;5065354;28;20048;-59
2023/07/25 11:01:43;;;;;;;13.65;4.60;;;;;;;29.29;33.83;98643.47;5071555;28;20043;-61
2023/07/25 11:04:25;;;;;;;5.78;4.50;;;;;;;29.43;33.75;98656.72;5067120;28;20033;-60
2023/07/25 11:06:56;;;;;;;5.93;5.03;;;;;;;29.15;33.96;98623.06;5072185;28;20115;-59
2023/07/25 11:09:23;;;;;;;5.70;5.20;;;;;;;29.11;33.79;98649.53;5070951;28;20055;-62
2023/07/25 11:11:51;;;;;;;5.10;4.60;;;;;;;29.07;33.94;98657.53;5071040;28;20037;-61
2023/07/25 11:14:18;;;;;;;7.78;5.60;;;;;;;29.12;34.70;98653.94;5071964;28;20051;-63
2023/07/25 11:16:46;;;;;;;8.35;5.32;;;;;;;29.11;34.15;98652.28;5072287;28;20116;-61
2023/07/25 11:19:11;;;;;;;8.52;5.05;;;;;;;29.03;34.58;98642.63;5071519;28;20445;-61
2023/07/25 11:21:39;;;;;;;7.97;5.30;;;;;;;28.97;34.60;98652.84;5071598;28;20028;-60
2023/07/25 11:24:06;;;;;;;6.57;4.70;;;;;;;28.84;34.52;98645.13;5071577;28;20097;-61
2023/07/25 11:26:32;;;;;;;5.95;5.35;;;;;;;28.70;34.72;98650.31;5071787;28;20067;-60
2023/07/25 11:29:05;;;;;;;6.28;4.68;;;;;;;28.56;34.93;98650.00;5071716;28;20033;-62